sensor_id;sensor_type;location;lat;lon;timestamp;temperature;humidity
28247;DHT22;34504;53.178;22.058;2022-09-29T00:01:24;11.20;99.90
28247;DHT22;34504;53.178;22.058;2022-09-29T00:03:52;11.10;99.90
28247;DHT22;34504;53.178;22.058;2022-09-29T00:06:23;11.10;99.90
28247;DHT22;34504;53.178;22.058;2022-09-29T00:08:51;11.20;99.90
28247;DHT22;34504;53.178;22.058;2022-09-29T00:11:18;11.10;99.90
28247;DHT22;34504;53.178;22.058;2022-09-29T00:13:47;11.10;99.90
28247;DHT22;34504;53.178;22.058;2022-09-29T00:16:15;11.10;99.90
28247;DHT22;34504;53.178;22.058;2022-09-29T00:18:54;11.10;99.90
28247;DHT22;34504;53.178;22.058;2022-09-29T00:21:23;11.10;99.90
28247;DHT22;34504;53.178;22.058;2022-09-29T00:23:50;11.10;99.90
28247;DHT22;34504;53.178;22.058;2022-09-29T00:26:22;11.20;99.80
28247;DHT22;34504;53.178;22.058;2022-09-29T00:28:53;11.10;99.70
28247;DHT22;34504;53.178;22.058;2022-09-29T00:31:28;11.10;99.60
28247;DHT22;34504;53.178;22.058;2022-09-29T00:33:56;11.10;99.70
28247;DHT22;34504;53.178;22.058;2022-09-29T00:36:25;11.00;99.50
28247;DHT22;34504;53.178;22.058;2022-09-29T00:38:57;11.00;99.50
28247;DHT22;34504;53.178;22.058;2022-09-29T00:41:31;11.00;99.60
28247;DHT22;34504;53.178;22.058;2022-09-29T00:49:44;10.90;99.60
28247;DHT22;34504;53.178;22.058;2022-09-29T00:52:24;10.90;99.70
28247;DHT22;34504;53.178;22.058;2022-09-29T00:54:58;10.90;99.70
28247;DHT22;34504;53.178;22.058;2022-09-29T00:57:32;10.90;99.80
28247;DHT22;34504;53.178;22.058;2022-09-29T01:00:11;10.90;99.90
28247;DHT22;34504;53.178;22.058;2022-09-29T01:02:43;10.80;99.80
28247;DHT22;34504;53.178;22.058;2022-09-29T01:05:17;10.80;99.80
28247;DHT22;34504;53.178;22.058;2022-09-29T01:07:46;10.80;99.90
28247;DHT22;34504;53.178;22.058;2022-09-29T01:10:15;10.80;99.90
28247;DHT22;34504;53.178;22.058;2022-09-29T01:12:45;10.80;99.90
28247;DHT22;34504;53.178;22.058;2022-09-29T01:15:18;10.80;99.90
28247;DHT22;34504;53.178;22.058;2022-09-29T01:17:47;10.80;99.90
28247;DHT22;34504;53.178;22.058;2022-09-29T01:20:18;10.80;99.90
28247;DHT22;34504;53.178;22.058;2022-09-29T01:25:47;10.70;99.90
28247;DHT22;34504;53.178;22.058;2022-09-29T01:31:37;10.70;99.90
28247;DHT22;34504;53.178;22.058;2022-09-29T01:34:30;10.70;99.90
28247;DHT22;34504;53.178;22.058;2022-09-29T01:37:20;10.70;99.90
28247;DHT22;34504;53.178;22.058;2022-09-29T01:39:52;10.70;99.90
28247;DHT22;34504;53.178;22.058;2022-09-29T01:42:35;10.70;99.90
28247;DHT22;34504;53.178;22.058;2022-09-29T01:45:14;10.70;99.90
28247;DHT22;34504;53.178;22.058;2022-09-29T01:47:49;10.70;99.90
28247;DHT22;34504;53.178;22.058;2022-09-29T01:50:27;10.70;99.90
28247;DHT22;34504;53.178;22.058;2022-09-29T01:53:04;10.70;99.90
28247;DHT22;34504;53.178;22.058;2022-09-29T01:55:40;10.70;99.90
28247;DHT22;34504;53.178;22.058;2022-09-29T01:58:18;10.70;99.90
28247;DHT22;34504;53.178;22.058;2022-09-29T02:00:56;10.60;99.90
28247;DHT22;34504;53.178;22.058;2022-09-29T02:06:00;10.70;99.90
28247;DHT22;34504;53.178;22.058;2022-09-29T02:08:43;10.60;99.90
28247;DHT22;34504;53.178;22.058;2022-09-29T02:11:13;10.60;99.90
28247;DHT22;34504;53.178;22.058;2022-09-29T02:14:05;10.60;99.90
28247;DHT22;34504;53.178;22.058;2022-09-29T02:16:48;10.60;99.90
28247;DHT22;34504;53.178;22.058;2022-09-29T02:19:24;10.60;99.90
28247;DHT22;34504;53.178;22.058;2022-09-29T02:21:53;10.60;99.90
28247;DHT22;34504;53.178;22.058;2022-09-29T02:24:23;10.60;99.90
28247;DHT22;34504;53.178;22.058;2022-09-29T02:26:51;10.60;99.90
28247;DHT22;34504;53.178;22.058;2022-09-29T02:29:22;10.60;99.90
28247;DHT22;34504;53.178;22.058;2022-09-29T02:31:49;10.70;99.90
28247;DHT22;34504;53.178;22.058;2022-09-29T02:34:20;10.70;99.90
28247;DHT22;34504;53.178;22.058;2022-09-29T02:53:43;10.80;99.90
28247;DHT22;34504;53.178;22.058;2022-09-29T02:59:11;10.80;99.90
28247;DHT22;34504;53.178;22.058;2022-09-29T03:01:58;10.80;99.90
28247;DHT22;34504;53.178;22.058;2022-09-29T03:04:27;10.80;99.90
28247;DHT22;34504;53.178;22.058;2022-09-29T03:06:55;10.80;99.90
28247;DHT22;34504;53.178;22.058;2022-09-29T03:09:29;10.80;99.90
28247;DHT22;34504;53.178;22.058;2022-09-29T03:11:57;10.80;99.90
28247;DHT22;34504;53.178;22.058;2022-09-29T03:14:25;10.80;99.90
28247;DHT22;34504;53.178;22.058;2022-09-29T03:16:52;10.80;99.90
28247;DHT22;34504;53.178;22.058;2022-09-29T03:19:21;10.70;99.90
28247;DHT22;34504;53.178;22.058;2022-09-29T03:21:48;10.70;99.90
28247;DHT22;34504;53.178;22.058;2022-09-29T03:24:17;10.80;99.90
28247;DHT22;34504;53.178;22.058;2022-09-29T03:26:45;10.80;99.90
28247;DHT22;34504;53.178;22.058;2022-09-29T03:29:13;10.80;99.90
28247;DHT22;34504;53.178;22.058;2022-09-29T03:31:41;10.70;99.90
28247;DHT22;34504;53.178;22.058;2022-09-29T03:34:09;10.70;99.90
28247;DHT22;34504;53.178;22.058;2022-09-29T03:36:36;10.70;99.90
28247;DHT22;34504;53.178;22.058;2022-09-29T03:39:07;10.70;99.90
28247;DHT22;34504;53.178;22.058;2022-09-29T03:41:35;10.70;99.90
28247;DHT22;34504;53.178;22.058;2022-09-29T03:44:02;10.70;99.90
28247;DHT22;34504;53.178;22.058;2022-09-29T03:46:30;10.80;99.90
28247;DHT22;34504;53.178;22.058;2022-09-29T03:49:01;10.70;99.90
28247;DHT22;34504;53.178;22.058;2022-09-29T03:51:28;10.70;99.90
28247;DHT22;34504;53.178;22.058;2022-09-29T03:53:56;10.70;99.90
28247;DHT22;34504;53.178;22.058;2022-09-29T03:56:24;10.70;99.90
28247;DHT22;34504;53.178;22.058;2022-09-29T03:58:52;10.70;99.90
28247;DHT22;34504;53.178;22.058;2022-09-29T04:01:20;10.70;99.90
28247;DHT22;34504;53.178;22.058;2022-09-29T04:03:47;10.70;99.90
28247;DHT22;34504;53.178;22.058;2022-09-29T04:06:18;10.60;99.90
28247;DHT22;34504;53.178;22.058;2022-09-29T04:08:46;10.60;99.90
28247;DHT22;34504;53.178;22.058;2022-09-29T04:11:15;10.60;99.90
28247;DHT22;34504;53.178;22.058;2022-09-29T04:13:43;10.60;99.90
28247;DHT22;34504;53.178;22.058;2022-09-29T04:16:11;10.60;99.90
28247;DHT22;34504;53.178;22.058;2022-09-29T04:18:38;10.70;99.90
28247;DHT22;34504;53.178;22.058;2022-09-29T04:21:10;10.60;99.90
28247;DHT22;34504;53.178;22.058;2022-09-29T04:23:38;10.60;99.90
28247;DHT22;34504;53.178;22.058;2022-09-29T04:26:05;10.60;99.90
28247;DHT22;34504;53.178;22.058;2022-09-29T04:28:34;10.60;99.90
28247;DHT22;34504;53.178;22.058;2022-09-29T04:31:03;10.60;99.90
28247;DHT22;34504;53.178;22.058;2022-09-29T04:33:32;10.60;99.90
28247;DHT22;34504;53.178;22.058;2022-09-29T04:35:59;10.60;99.90
28247;DHT22;34504;53.178;22.058;2022-09-29T04:38:27;10.60;99.90
28247;DHT22;34504;53.178;22.058;2022-09-29T04:40:55;10.60;99.90
28247;DHT22;34504;53.178;22.058;2022-09-29T04:43:23;10.60;99.90
28247;DHT22;34504;53.178;22.058;2022-09-29T04:45:51;10.60;99.90
28247;DHT22;34504;53.178;22.058;2022-09-29T04:48:19;10.60;99.90
28247;DHT22;34504;53.178;22.058;2022-09-29T04:50:46;10.60;99.90
28247;DHT22;34504;53.178;22.058;2022-09-29T04:53:15;10.60;99.90
28247;DHT22;34504;53.178;22.058;2022-09-29T04:55:43;10.60;99.90
28247;DHT22;34504;53.178;22.058;2022-09-29T04:58:11;10.60;99.90
28247;DHT22;34504;53.178;22.058;2022-09-29T05:00:39;10.60;99.90
28247;DHT22;34504;53.178;22.058;2022-09-29T05:03:07;10.60;99.90
28247;DHT22;34504;53.178;22.058;2022-09-29T05:05:34;10.60;99.90
28247;DHT22;34504;53.178;22.058;2022-09-29T05:08:03;10.60;99.90
28247;DHT22;34504;53.178;22.058;2022-09-29T05:10:31;10.60;99.90
28247;DHT22;34504;53.178;22.058;2022-09-29T05:12:59;10.50;99.90
28247;DHT22;34504;53.178;22.058;2022-09-29T05:15:27;10.50;99.90
28247;DHT22;34504;53.178;22.058;2022-09-29T05:17:54;10.50;99.90
28247;DHT22;34504;53.178;22.058;2022-09-29T05:20:22;10.60;99.90
28247;DHT22;34504;53.178;22.058;2022-09-29T05:22:50;10.50;99.90
28247;DHT22;34504;53.178;22.058;2022-09-29T05:25:21;10.50;99.90
28247;DHT22;34504;53.178;22.058;2022-09-29T05:27:48;10.50;99.90
28247;DHT22;34504;53.178;22.058;2022-09-29T05:30:16;10.50;99.90
28247;DHT22;34504;53.178;22.058;2022-09-29T05:32:44;10.50;99.90
28247;DHT22;34504;53.178;22.058;2022-09-29T05:35:12;10.50;99.90
28247;DHT22;34504;53.178;22.058;2022-09-29T05:37:42;10.50;99.90
28247;DHT22;34504;53.178;22.058;2022-09-29T05:40:11;10.50;99.90
28247;DHT22;34504;53.178;22.058;2022-09-29T05:42:39;10.50;99.90
28247;DHT22;34504;53.178;22.058;2022-09-29T05:45:08;10.50;99.80
28247;DHT22;34504;53.178;22.058;2022-09-29T05:47:41;10.50;99.80
28247;DHT22;34504;53.178;22.058;2022-09-29T05:50:10;10.50;99.80
28247;DHT22;34504;53.178;22.058;2022-09-29T05:52:40;10.50;99.70
28247;DHT22;34504;53.178;22.058;2022-09-29T05:55:08;10.50;99.80
28247;DHT22;34504;53.178;22.058;2022-09-29T05:57:36;10.50;99.80
28247;DHT22;34504;53.178;22.058;2022-09-29T06:00:05;10.50;99.90
28247;DHT22;34504;53.178;22.058;2022-09-29T06:02:39;10.50;99.80
28247;DHT22;34504;53.178;22.058;2022-09-29T06:05:07;10.50;99.70
28247;DHT22;34504;53.178;22.058;2022-09-29T06:07:35;10.50;99.70
28247;DHT22;34504;53.178;22.058;2022-09-29T06:10:03;10.50;99.70
28247;DHT22;34504;53.178;22.058;2022-09-29T06:12:37;10.50;99.60
28247;DHT22;34504;53.178;22.058;2022-09-29T06:15:06;10.50;99.70
28247;DHT22;34504;53.178;22.058;2022-09-29T06:17:34;10.50;99.70
28247;DHT22;34504;53.178;22.058;2022-09-29T06:20:09;10.50;99.80
28247;DHT22;34504;53.178;22.058;2022-09-29T06:22:38;10.60;99.90
28247;DHT22;34504;53.178;22.058;2022-09-29T06:25:06;10.70;99.90
28247;DHT22;34504;53.178;22.058;2022-09-29T06:27:33;10.70;99.80
28247;DHT22;34504;53.178;22.058;2022-09-29T06:30:04;10.70;99.70
28247;DHT22;34504;53.178;22.058;2022-09-29T06:32:33;10.70;99.70
28247;DHT22;34504;53.178;22.058;2022-09-29T06:35:02;10.80;99.70
28247;DHT22;34504;53.178;22.058;2022-09-29T06:37:49;10.80;99.60
28247;DHT22;34504;53.178;22.058;2022-09-29T06:40:18;10.90;99.30
28247;DHT22;34504;53.178;22.058;2022-09-29T06:42:50;11.00;99.10
28247;DHT22;34504;53.178;22.058;2022-09-29T06:45:17;11.00;99.00
28247;DHT22;34504;53.178;22.058;2022-09-29T06:47:48;11.00;99.00
28247;DHT22;34504;53.178;22.058;2022-09-29T06:50:16;11.10;98.90
28247;DHT22;34504;53.178;22.058;2022-09-29T06:52:44;11.20;98.70
28247;DHT22;34504;53.178;22.058;2022-09-29T06:55:25;11.20;98.60
28247;DHT22;34504;53.178;22.058;2022-09-29T06:57:53;11.30;98.40
28247;DHT22;34504;53.178;22.058;2022-09-29T07:00:21;11.20;98.20
28247;DHT22;34504;53.178;22.058;2022-09-29T07:02:48;11.30;98.30
28247;DHT22;34504;53.178;22.058;2022-09-29T07:05:17;11.20;98.00
28247;DHT22;34504;53.178;22.058;2022-09-29T07:07:47;11.30;98.10
28247;DHT22;34504;53.178;22.058;2022-09-29T07:10:23;11.20;98.10
28247;DHT22;34504;53.178;22.058;2022-09-29T07:12:52;11.20;98.00
28247;DHT22;34504;53.178;22.058;2022-09-29T07:15:21;11.20;98.00
28247;DHT22;34504;53.178;22.058;2022-09-29T07:17:52;11.30;98.00
28247;DHT22;34504;53.178;22.058;2022-09-29T07:20:20;11.30;97.80
28247;DHT22;34504;53.178;22.058;2022-09-29T07:22:48;11.30;98.00
28247;DHT22;34504;53.178;22.058;2022-09-29T07:25:15;11.30;97.90
28247;DHT22;34504;53.178;22.058;2022-09-29T07:28:03;11.40;97.90
28247;DHT22;34504;53.178;22.058;2022-09-29T07:30:31;11.40;97.60
28247;DHT22;34504;53.178;22.058;2022-09-29T07:33:07;11.40;97.70
28247;DHT22;34504;53.178;22.058;2022-09-29T07:35:34;11.40;97.70
28247;DHT22;34504;53.178;22.058;2022-09-29T07:38:06;11.50;97.40
28247;DHT22;34504;53.178;22.058;2022-09-29T07:40:33;11.60;97.40
28247;DHT22;34504;53.178;22.058;2022-09-29T07:43:01;11.60;96.80
28247;DHT22;34504;53.178;22.058;2022-09-29T07:45:29;11.60;97.00
28247;DHT22;34504;53.178;22.058;2022-09-29T07:47:57;11.60;96.90
28247;DHT22;34504;53.178;22.058;2022-09-29T07:50:28;11.60;96.80
28247;DHT22;34504;53.178;22.058;2022-09-29T07:53:02;11.60;96.80
28247;DHT22;34504;53.178;22.058;2022-09-29T07:55:30;11.50;96.90
28247;DHT22;34504;53.178;22.058;2022-09-29T07:57:58;11.50;96.80
28247;DHT22;34504;53.178;22.058;2022-09-29T08:00:30;11.50;96.70
28247;DHT22;34504;53.178;22.058;2022-09-29T08:03:02;11.50;96.70
28247;DHT22;34504;53.178;22.058;2022-09-29T08:05:30;11.50;96.80
28247;DHT22;34504;53.178;22.058;2022-09-29T08:08:02;11.50;96.60
28247;DHT22;34504;53.178;22.058;2022-09-29T08:10:31;11.50;96.70
28247;DHT22;34504;53.178;22.058;2022-09-29T08:13:07;11.40;96.80
28247;DHT22;34504;53.178;22.058;2022-09-29T08:15:36;11.50;96.80
28247;DHT22;34504;53.178;22.058;2022-09-29T08:18:04;11.50;96.90
28247;DHT22;34504;53.178;22.058;2022-09-29T08:20:34;11.60;96.90
28247;DHT22;34504;53.178;22.058;2022-09-29T08:23:02;11.70;96.90
28247;DHT22;34504;53.178;22.058;2022-09-29T08:25:30;11.80;96.80
28247;DHT22;34504;53.178;22.058;2022-09-29T08:27:58;11.80;96.80
28247;DHT22;34504;53.178;22.058;2022-09-29T08:30:25;11.90;96.50
28247;DHT22;34504;53.178;22.058;2022-09-29T08:32:53;11.90;96.60
28247;DHT22;34504;53.178;22.058;2022-09-29T08:35:21;12.00;96.60
28247;DHT22;34504;53.178;22.058;2022-09-29T08:37:49;12.00;96.40
28247;DHT22;34504;53.178;22.058;2022-09-29T08:40:17;12.00;96.40
28247;DHT22;34504;53.178;22.058;2022-09-29T08:42:59;12.00;96.40
28247;DHT22;34504;53.178;22.058;2022-09-29T08:45:55;12.00;96.50
28247;DHT22;34504;53.178;22.058;2022-09-29T08:48:40;12.20;96.20
28247;DHT22;34504;53.178;22.058;2022-09-29T08:51:47;12.20;96.20
28247;DHT22;34504;53.178;22.058;2022-09-29T08:54:33;12.30;96.20
28247;DHT22;34504;53.178;22.058;2022-09-29T08:57:12;12.30;96.00
28247;DHT22;34504;53.178;22.058;2022-09-29T08:59:58;12.30;96.10
28247;DHT22;34504;53.178;22.058;2022-09-29T09:17:46;12.50;95.40
28247;DHT22;34504;53.178;22.058;2022-09-29T09:20:42;12.50;95.30
28247;DHT22;34504;53.178;22.058;2022-09-29T09:23:24;12.50;95.30
28247;DHT22;34504;53.178;22.058;2022-09-29T09:26:00;12.50;95.40
28247;DHT22;34504;53.178;22.058;2022-09-29T09:28:35;12.60;95.40
28247;DHT22;34504;53.178;22.058;2022-09-29T09:34:13;12.70;95.30
28247;DHT22;34504;53.178;22.058;2022-09-29T09:40:16;12.80;95.30
28247;DHT22;34504;53.178;22.058;2022-09-29T09:43:04;12.90;95.10
28247;DHT22;34504;53.178;22.058;2022-09-29T09:46:56;12.90;94.90
28247;DHT22;34504;53.178;22.058;2022-09-29T09:49:13;12.90;94.50
28247;DHT22;34504;53.178;22.058;2022-09-29T09:54:41;12.90;94.40
28247;DHT22;34504;53.178;22.058;2022-09-29T09:57:16;12.90;94.30
28247;DHT22;34504;53.178;22.058;2022-09-29T10:02:50;12.90;94.20
28247;DHT22;34504;53.178;22.058;2022-09-29T10:05:25;12.90;94.20
28247;DHT22;34504;53.178;22.058;2022-09-29T10:07:56;13.00;94.40
28247;DHT22;34504;53.178;22.058;2022-09-29T10:10:27;13.00;94.20
28247;DHT22;34504;53.178;22.058;2022-09-29T10:13:07;13.10;94.30
28247;DHT22;34504;53.178;22.058;2022-09-29T10:15:52;13.20;94.20
28247;DHT22;34504;53.178;22.058;2022-09-29T10:18:28;13.20;93.90
28247;DHT22;34504;53.178;22.058;2022-09-29T10:20:57;13.20;93.70
28247;DHT22;34504;53.178;22.058;2022-09-29T10:26:16;13.20;93.60
28247;DHT22;34504;53.178;22.058;2022-09-29T10:28:57;13.20;93.40
28247;DHT22;34504;53.178;22.058;2022-09-29T10:31:34;13.20;93.30
28247;DHT22;34504;53.178;22.058;2022-09-29T10:34:15;13.20;93.30
28247;DHT22;34504;53.178;22.058;2022-09-29T10:36:58;13.20;93.20
28247;DHT22;34504;53.178;22.058;2022-09-29T10:39:39;13.20;93.30
28247;DHT22;34504;53.178;22.058;2022-09-29T10:42:50;13.20;93.20
28247;DHT22;34504;53.178;22.058;2022-09-29T10:45:25;13.30;93.20
28247;DHT22;34504;53.178;22.058;2022-09-29T10:50:54;13.30;93.20
28247;DHT22;34504;53.178;22.058;2022-09-29T10:53:39;13.30;93.10
28247;DHT22;34504;53.178;22.058;2022-09-29T10:56:22;13.30;92.90
28247;DHT22;34504;53.178;22.058;2022-09-29T10:58:55;13.20;93.00
28247;DHT22;34504;53.178;22.058;2022-09-29T11:01:41;13.20;92.80
28247;DHT22;34504;53.178;22.058;2022-09-29T11:04:31;13.20;92.90
28247;DHT22;34504;53.178;22.058;2022-09-29T11:07:09;13.10;92.50
28247;DHT22;34504;53.178;22.058;2022-09-29T11:09:45;13.10;93.00
28247;DHT22;34504;53.178;22.058;2022-09-29T11:12:35;13.00;92.90
28247;DHT22;34504;53.178;22.058;2022-09-29T11:15:26;13.00;92.80
28247;DHT22;34504;53.178;22.058;2022-09-29T11:17:55;13.00;93.00
28247;DHT22;34504;53.178;22.058;2022-09-29T11:20:31;12.90;93.20
28247;DHT22;34504;53.178;22.058;2022-09-29T11:23:31;13.00;93.30
28247;DHT22;34504;53.178;22.058;2022-09-29T11:26:04;13.00;93.00
28247;DHT22;34504;53.178;22.058;2022-09-29T11:28:40;13.00;92.80
28247;DHT22;34504;53.178;22.058;2022-09-29T11:57:49;13.20;92.70
28247;DHT22;34504;53.178;22.058;2022-09-29T12:00:21;13.30;92.50
28247;DHT22;34504;53.178;22.058;2022-09-29T12:05:43;13.40;92.60
28247;DHT22;34504;53.178;22.058;2022-09-29T12:11:21;13.50;92.50
28247;DHT22;34504;53.178;22.058;2022-09-29T12:14:16;13.40;92.10
28247;DHT22;34504;53.178;22.058;2022-09-29T12:17:13;13.50;92.20
28247;DHT22;34504;53.178;22.058;2022-09-29T12:19:47;13.50;92.20
28247;DHT22;34504;53.178;22.058;2022-09-29T12:22:19;13.60;92.20
28247;DHT22;34504;53.178;22.058;2022-09-29T12:24:53;13.60;92.10
28247;DHT22;34504;53.178;22.058;2022-09-29T12:27:28;13.70;92.00
28247;DHT22;34504;53.178;22.058;2022-09-29T12:38:58;13.70;92.10
28247;DHT22;34504;53.178;22.058;2022-09-29T12:41:31;13.80;92.20
28247;DHT22;34504;53.178;22.058;2022-09-29T12:46:37;13.80;92.20
28247;DHT22;34504;53.178;22.058;2022-09-29T12:49:18;13.80;92.00
28247;DHT22;34504;53.178;22.058;2022-09-29T12:51:52;13.90;92.20
28247;DHT22;34504;53.178;22.058;2022-09-29T12:57:22;14.00;91.70
28247;DHT22;34504;53.178;22.058;2022-09-29T13:00:04;14.10;91.80
28247;DHT22;34504;53.178;22.058;2022-09-29T13:06:15;14.10;91.10
28247;DHT22;34504;53.178;22.058;2022-09-29T13:15:05;14.10;91.00
28247;DHT22;34504;53.178;22.058;2022-09-29T13:30:52;14.00;91.00
28247;DHT22;34504;53.178;22.058;2022-09-29T13:33:26;14.00;90.80
28247;DHT22;34504;53.178;22.058;2022-09-29T13:35:54;14.00;90.80
28247;DHT22;34504;53.178;22.058;2022-09-29T13:38:24;13.90;90.90
28247;DHT22;34504;53.178;22.058;2022-09-29T13:41:15;14.00;91.10
28247;DHT22;34504;53.178;22.058;2022-09-29T13:51:50;13.90;90.90
28247;DHT22;34504;53.178;22.058;2022-09-29T13:54:34;13.90;90.80
28247;DHT22;34504;53.178;22.058;2022-09-29T14:00:01;13.90;91.20
28247;DHT22;34504;53.178;22.058;2022-09-29T14:02:43;13.80;91.30
28247;DHT22;34504;53.178;22.058;2022-09-29T14:08:11;13.80;91.60
28247;DHT22;34504;53.178;22.058;2022-09-29T14:10:52;13.80;91.70
28247;DHT22;34504;53.178;22.058;2022-09-29T14:13:38;13.70;91.80
28247;DHT22;34504;53.178;22.058;2022-09-29T14:19:30;13.70;91.60
28247;DHT22;34504;53.178;22.058;2022-09-29T14:22:03;13.70;91.80
28247;DHT22;34504;53.178;22.058;2022-09-29T14:29:47;13.60;92.10
28247;DHT22;34504;53.178;22.058;2022-09-29T14:32:22;13.60;91.80
28247;DHT22;34504;53.178;22.058;2022-09-29T14:35:00;13.50;91.80
28247;DHT22;34504;53.178;22.058;2022-09-29T14:37:32;13.50;91.90
28247;DHT22;34504;53.178;22.058;2022-09-29T14:39:59;13.50;91.80
28247;DHT22;34504;53.178;22.058;2022-09-29T15:00:30;13.30;92.20
28247;DHT22;34504;53.178;22.058;2022-09-29T15:03:00;13.30;92.30
28247;DHT22;34504;53.178;22.058;2022-09-29T15:06:16;13.30;92.40
28247;DHT22;34504;53.178;22.058;2022-09-29T15:09:16;13.20;92.30
28247;DHT22;34504;53.178;22.058;2022-09-29T15:11:50;13.20;92.40
28247;DHT22;34504;53.178;22.058;2022-09-29T15:14:27;13.10;92.70
28247;DHT22;34504;53.178;22.058;2022-09-29T15:17:16;13.10;92.80
28247;DHT22;34504;53.178;22.058;2022-09-29T15:25:28;13.00;93.10
28247;DHT22;34504;53.178;22.058;2022-09-29T15:30:38;12.90;93.00
28247;DHT22;34504;53.178;22.058;2022-09-29T15:33:24;12.90;93.10
28247;DHT22;34504;53.178;22.058;2022-09-29T15:36:02;12.80;93.20
28247;DHT22;34504;53.178;22.058;2022-09-29T15:38:38;12.80;93.30
28247;DHT22;34504;53.178;22.058;2022-09-29T15:41:20;12.70;93.40
28247;DHT22;34504;53.178;22.058;2022-09-29T15:44:25;12.70;93.50
28247;DHT22;34504;53.178;22.058;2022-09-29T15:46:57;12.60;93.60
28247;DHT22;34504;53.178;22.058;2022-09-29T15:49:27;12.50;93.70
28247;DHT22;34504;53.178;22.058;2022-09-29T15:52:05;12.50;93.80
28247;DHT22;34504;53.178;22.058;2022-09-29T15:54:40;12.50;93.90
28247;DHT22;34504;53.178;22.058;2022-09-29T16:05:39;12.20;94.30
28247;DHT22;34504;53.178;22.058;2022-09-29T16:10:49;12.00;94.60
28247;DHT22;34504;53.178;22.058;2022-09-29T16:13:24;11.90;94.70
28247;DHT22;34504;53.178;22.058;2022-09-29T16:15:56;11.90;94.80
28247;DHT22;34504;53.178;22.058;2022-09-29T16:18:42;11.80;94.90
28247;DHT22;34504;53.178;22.058;2022-09-29T16:21:16;11.70;95.10
28247;DHT22;34504;53.178;22.058;2022-09-29T16:23:59;11.70;95.20
28247;DHT22;34504;53.178;22.058;2022-09-29T16:26:46;11.60;95.30
28247;DHT22;34504;53.178;22.058;2022-09-29T16:31:47;11.50;95.50
28247;DHT22;34504;53.178;22.058;2022-09-29T16:39:41;11.30;95.70
28247;DHT22;34504;53.178;22.058;2022-09-29T16:42:17;11.30;95.80
28247;DHT22;34504;53.178;22.058;2022-09-29T16:44:48;11.30;95.90
28247;DHT22;34504;53.178;22.058;2022-09-29T16:47:32;11.20;96.00
28247;DHT22;34504;53.178;22.058;2022-09-29T16:50:11;11.10;96.10
28247;DHT22;34504;53.178;22.058;2022-09-29T16:52:47;11.10;96.20
28247;DHT22;34504;53.178;22.058;2022-09-29T16:58:09;11.00;96.20
28247;DHT22;34504;53.178;22.058;2022-09-29T17:00:39;11.00;96.40
28247;DHT22;34504;53.178;22.058;2022-09-29T17:03:08;10.90;96.50
28247;DHT22;34504;53.178;22.058;2022-09-29T17:05:39;10.80;96.60
28247;DHT22;34504;53.178;22.058;2022-09-29T17:08:18;10.80;96.70
28247;DHT22;34504;53.178;22.058;2022-09-29T17:10:50;10.70;96.80
28247;DHT22;34504;53.178;22.058;2022-09-29T17:13:19;10.70;97.10
28247;DHT22;34504;53.178;22.058;2022-09-29T17:15:50;10.60;97.10
28247;DHT22;34504;53.178;22.058;2022-09-29T17:18:19;10.60;97.20
28247;DHT22;34504;53.178;22.058;2022-09-29T17:20:49;10.50;97.30
28247;DHT22;34504;53.178;22.058;2022-09-29T17:23:20;10.50;97.40
28247;DHT22;34504;53.178;22.058;2022-09-29T17:25:48;10.40;97.50
28247;DHT22;34504;53.178;22.058;2022-09-29T17:28:21;10.50;97.40
28247;DHT22;34504;53.178;22.058;2022-09-29T17:30:52;10.50;97.40
28247;DHT22;34504;53.178;22.058;2022-09-29T17:33:22;10.40;97.50
28247;DHT22;34504;53.178;22.058;2022-09-29T17:35:51;10.40;97.50
28247;DHT22;34504;53.178;22.058;2022-09-29T17:38:22;10.40;97.60
28247;DHT22;34504;53.178;22.058;2022-09-29T17:41:01;10.30;97.60
28247;DHT22;34504;53.178;22.058;2022-09-29T17:43:33;10.30;97.60
28247;DHT22;34504;53.178;22.058;2022-09-29T17:46:01;10.30;97.60
28247;DHT22;34504;53.178;22.058;2022-09-29T17:48:29;10.30;97.70
28247;DHT22;34504;53.178;22.058;2022-09-29T17:50:59;10.20;97.70
28247;DHT22;34504;53.178;22.058;2022-09-29T17:53:27;10.20;97.70
28247;DHT22;34504;53.178;22.058;2022-09-29T17:55:59;10.20;97.80
28247;DHT22;34504;53.178;22.058;2022-09-29T17:58:28;10.10;97.80
28247;DHT22;34504;53.178;22.058;2022-09-29T18:00:56;10.10;97.90
28247;DHT22;34504;53.178;22.058;2022-09-29T18:03:24;10.10;97.90
28247;DHT22;34504;53.178;22.058;2022-09-29T18:05:53;10.00;97.90
28247;DHT22;34504;53.178;22.058;2022-09-29T18:08:30;10.00;98.10
28247;DHT22;34504;53.178;22.058;2022-09-29T18:11:01;10.00;98.30
28247;DHT22;34504;53.178;22.058;2022-09-29T18:13:29;10.00;98.10
28247;DHT22;34504;53.178;22.058;2022-09-29T18:15:59;10.00;98.10
28247;DHT22;34504;53.178;22.058;2022-09-29T18:18:28;10.00;98.10
28247;DHT22;34504;53.178;22.058;2022-09-29T18:20:56;9.90;98.10
28247;DHT22;34504;53.178;22.058;2022-09-29T18:23:27;9.90;98.30
28247;DHT22;34504;53.178;22.058;2022-09-29T18:25:55;9.90;98.30
28247;DHT22;34504;53.178;22.058;2022-09-29T18:28:23;9.90;98.20
28247;DHT22;34504;53.178;22.058;2022-09-29T18:30:55;9.90;98.30
28247;DHT22;34504;53.178;22.058;2022-09-29T18:33:27;9.80;98.30
28247;DHT22;34504;53.178;22.058;2022-09-29T18:35:58;9.80;98.40
28247;DHT22;34504;53.178;22.058;2022-09-29T18:38:26;9.70;98.40
28247;DHT22;34504;53.178;22.058;2022-09-29T18:40:55;9.70;98.40
28247;DHT22;34504;53.178;22.058;2022-09-29T18:43:24;9.70;98.40
28247;DHT22;34504;53.178;22.058;2022-09-29T18:45:54;9.70;98.50
28247;DHT22;34504;53.178;22.058;2022-09-29T18:48:23;9.70;98.50
28247;DHT22;34504;53.178;22.058;2022-09-29T18:50:51;9.60;98.60
28247;DHT22;34504;53.178;22.058;2022-09-29T18:53:20;9.60;98.70
28247;DHT22;34504;53.178;22.058;2022-09-29T18:55:54;9.60;98.60
28247;DHT22;34504;53.178;22.058;2022-09-29T18:58:23;9.60;98.70
28247;DHT22;34504;53.178;22.058;2022-09-29T19:00:53;9.60;98.70
28247;DHT22;34504;53.178;22.058;2022-09-29T19:03:23;9.60;98.60
28247;DHT22;34504;53.178;22.058;2022-09-29T19:05:53;9.50;98.60
28247;DHT22;34504;53.178;22.058;2022-09-29T19:08:22;9.50;98.60
28247;DHT22;34504;53.178;22.058;2022-09-29T19:10:52;9.40;98.60
28247;DHT22;34504;53.178;22.058;2022-09-29T19:13:20;9.40;98.60
28247;DHT22;34504;53.178;22.058;2022-09-29T19:15:49;9.40;98.60
28247;DHT22;34504;53.178;22.058;2022-09-29T19:18:21;9.40;98.60
28247;DHT22;34504;53.178;22.058;2022-09-29T19:20:52;9.40;98.50
28247;DHT22;34504;53.178;22.058;2022-09-29T19:23:22;9.40;98.50